createdAt,value
2018-03-11T00:00:31.806Z,9.11
2018-03-11T00:01:12.353Z,9.22
2018-03-11T00:01:52.922Z,9.21
2018-03-11T00:02:33.608Z,9.19
2018-03-11T00:03:14.185Z,9.14
2018-03-11T00:03:54.805Z,9.21
2018-03-11T00:04:35.346Z,9.23
2018-03-11T00:05:15.911Z,9.23
2018-03-11T00:05:56.464Z,9.21
2018-03-11T00:06:37.003Z,9.14
2018-03-11T00:07:17.616Z,9.22
2018-03-11T00:07:58.178Z,9.11
2018-03-11T00:08:38.740Z,9.11
2018-03-11T00:09:19.298Z,9.19
2018-03-11T00:09:59.996Z,9.19
2018-03-11T00:10:40.591Z,9.08
2018-03-11T00:11:21.129Z,9.11
2018-03-11T00:12:01.791Z,9.26
2018-03-11T00:12:42.425Z,9.18
2018-03-11T00:13:22.979Z,9.08
2018-03-11T00:14:03.559Z,9.14
2018-03-11T00:14:44.146Z,9.21
2018-03-11T00:15:24.795Z,9.11
2018-03-11T00:16:05.309Z,9.11
2018-03-11T00:16:45.916Z,9.11
2018-03-11T00:17:26.576Z,9.08
2018-03-11T00:18:07.079Z,9.14
2018-03-11T00:18:47.695Z,9.1
2018-03-11T00:19:28.321Z,9.14
2018-03-11T00:20:08.867Z,9.08
2018-03-11T00:20:49.418Z,9.08
2018-03-11T00:21:30.210Z,9.22
2018-03-11T00:22:10.748Z,9.08
2018-03-11T00:22:51.345Z,9.14
2018-03-11T00:23:31.964Z,9.14
2018-03-11T00:24:12.542Z,9.16
2018-03-11T00:24:53.274Z,9.18
2018-03-11T00:25:33.860Z,9.1
2018-03-11T00:26:14.484Z,9.1
2018-03-11T00:26:55.061Z,9.13
2018-03-11T00:27:35.694Z,9.18
2018-03-11T00:28:16.328Z,9.13
2018-03-11T00:28:56.921Z,9.13
2018-03-11T00:29:37.491Z,9.13
2018-03-11T00:30:18.078Z,9.13
2018-03-11T00:30:58.652Z,9.13
2018-03-11T00:31:39.221Z,9.08
2018-03-11T00:32:19.830Z,9.11
2018-03-11T00:33:00.392Z,9.06
2018-03-11T00:33:40.966Z,9.11
2018-03-11T00:34:21.535Z,9.13
2018-03-11T00:35:02.082Z,9.11
2018-03-11T00:35:42.656Z,9.14
2018-03-11T00:36:23.258Z,9.1
2018-03-11T00:37:03.826Z,9.14
2018-03-11T00:37:44.395Z,9.1
2018-03-11T00:38:24.939Z,9.08
2018-03-11T00:39:05.637Z,9.08
2018-03-11T00:39:46.272Z,9.11
2018-03-11T00:40:26.846Z,9.08
2018-03-11T00:41:07.487Z,9.11
2018-03-11T00:41:48.063Z,9.1
2018-03-11T00:42:28.624Z,9.11
2018-03-11T00:43:09.224Z,9.11
2018-03-11T00:43:49.805Z,9.1
2018-03-11T00:44:30.362Z,9.1
2018-03-11T00:45:10.986Z,9.06
2018-03-11T00:45:51.574Z,9.11
2018-03-11T00:46:32.142Z,8.99
2018-03-11T00:47:12.702Z,9.06
2018-03-11T00:47:53.302Z,9.02
2018-03-11T00:48:33.873Z,9.08
2018-03-11T00:49:14.570Z,9.08
2018-03-11T00:49:55.125Z,8.99
2018-03-11T00:50:35.692Z,9.1
2018-03-11T00:51:16.315Z,9.1
2018-03-11T00:51:56.972Z,8.99
2018-03-11T00:52:37.498Z,9.1
2018-03-11T00:53:18.050Z,8.99
2018-03-11T00:53:58.605Z,8.99
2018-03-11T00:54:39.189Z,9.11
2018-03-11T00:55:19.778Z,9.1
2018-03-11T00:56:00.341Z,9.14
2018-03-11T00:56:40.916Z,8.97
2018-03-11T00:57:21.466Z,9.16
2018-03-11T00:58:02.047Z,9.1
2018-03-11T00:58:42.601Z,9.11
2018-03-11T00:59:23.195Z,9.11
2018-03-11T01:00:03.790Z,9.11
2018-03-11T01:00:44.423Z,9.08
2018-03-11T01:01:24.947Z,8.99
2018-03-11T01:02:05.578Z,8.99
2018-03-11T01:02:46.102Z,9.02
2018-03-11T01:03:26.657Z,9.04
2018-03-11T01:04:07.214Z,9.08
2018-03-11T01:04:47.777Z,9.13
2018-03-11T01:05:28.415Z,8.99
2018-03-11T01:06:08.910Z,9.13
2018-03-11T01:06:49.469Z,9.04
2018-03-11T01:07:30.106Z,9.1
2018-03-11T01:08:10.756Z,9.13
2018-03-11T01:08:51.326Z,9
2018-03-11T01:09:31.960Z,9.04
2018-03-11T01:10:12.727Z,8.95
2018-03-11T01:10:53.363Z,9.1
2018-03-11T01:11:33.928Z,9.1
2018-03-11T01:12:14.498Z,9.08
2018-03-11T01:12:55.075Z,8.94
2018-03-11T01:13:35.640Z,9.13
2018-03-11T01:14:16.208Z,9
2018-03-11T01:14:56.787Z,9.13
2018-03-11T01:15:37.371Z,9
2018-03-11T01:16:17.938Z,9
2018-03-11T01:16:58.512Z,8.97
2018-03-11T01:17:39.078Z,9.02
2018-03-11T01:18:19.649Z,8.99
2018-03-11T01:19:00.267Z,9.08
2018-03-11T01:19:40.854Z,8.99
2018-03-11T01:20:21.420Z,9
2018-03-11T01:21:01.998Z,9.1
2018-03-11T01:21:42.564Z,9.03
2018-03-11T01:22:23.116Z,9
2018-03-11T01:23:03.753Z,9
2018-03-11T01:23:44.325Z,9.1
2018-03-11T01:24:24.951Z,8.94
2018-03-11T01:25:05.561Z,9.04
2018-03-11T01:25:46.204Z,9.13
2018-03-11T01:26:26.890Z,9.08
2018-03-11T01:27:07.417Z,8.94
2018-03-11T01:27:47.975Z,8.94
2018-03-11T01:28:28.606Z,9.04
2018-03-11T01:29:09.131Z,9.02
2018-03-11T01:29:49.678Z,9
2018-03-11T01:30:30.272Z,8.97
2018-03-11T01:31:10.825Z,9
2018-03-11T01:31:51.380Z,9
2018-03-11T01:32:31.995Z,8.95
2018-03-11T01:33:12.663Z,8.99
2018-03-11T01:33:53.241Z,9
2018-03-11T01:34:33.815Z,8.99
2018-03-11T01:35:14.415Z,9
2018-03-11T01:35:54.975Z,8.99
2018-03-11T01:36:35.571Z,9
2018-03-11T01:37:16.165Z,9.08
2018-03-11T01:37:56.767Z,8.99
2018-03-11T01:38:37.333Z,8.95
2018-03-11T01:39:17.908Z,9.13
2018-03-11T01:39:58.558Z,8.92
2018-03-11T01:40:39.125Z,9.1
2018-03-11T01:41:19.739Z,9.08
2018-03-11T01:42:00.306Z,8.91
2018-03-11T01:42:40.886Z,8.95
2018-03-11T01:43:21.494Z,8.95
2018-03-11T01:44:02.048Z,9.08
2018-03-11T01:44:42.674Z,8.99
2018-03-11T01:45:23.227Z,9.03
2018-03-11T01:46:03.830Z,9.03
2018-03-11T01:46:44.440Z,8.99
2018-03-11T01:47:25.033Z,8.97
2018-03-11T01:48:05.573Z,8.92
2018-03-11T01:48:46.174Z,9.04
2018-03-11T01:49:26.773Z,9.06
2018-03-11T01:50:07.324Z,9.02
2018-03-11T01:50:47.876Z,9.1
2018-03-11T01:51:28.439Z,8.97
2018-03-11T01:52:09.030Z,9.03
2018-03-11T01:52:49.546Z,9.04
2018-03-11T01:53:30.102Z,8.94
2018-03-11T01:54:10.693Z,9.02
2018-03-11T01:54:51.294Z,8.97
2018-03-11T01:55:31.845Z,8.95
2018-03-11T01:56:12.409Z,9.1
2018-03-11T01:56:53.003Z,8.95
2018-03-11T01:57:33.647Z,8.95
2018-03-11T01:58:14.208Z,8.99
2018-03-11T01:58:54.775Z,9.13
2018-03-11T01:59:35.345Z,8.95
2018-03-11T02:00:15.917Z,9
2018-03-11T02:00:56.471Z,8.95
2018-03-11T02:01:37.033Z,9
2018-03-11T02:02:17.584Z,9.11
2018-03-11T02:02:58.146Z,9
2018-03-11T02:03:38.709Z,8.95
2018-03-11T02:04:19.293Z,9.04
2018-03-11T02:04:59.898Z,9
2018-03-11T02:05:40.470Z,8.99
2018-03-11T02:06:21.046Z,9.06
2018-03-11T02:07:01.591Z,9.1
2018-03-11T02:07:42.157Z,9.1
2018-03-11T02:08:22.731Z,9.13
2018-03-11T02:09:03.305Z,9
2018-03-11T02:09:44.052Z,9.06
2018-03-11T02:10:24.636Z,9.14
2018-03-11T02:11:05.280Z,8.99
2018-03-11T02:11:45.839Z,8.97
2018-03-11T02:12:26.431Z,9.13
2018-03-11T02:13:07.017Z,9.08
2018-03-11T02:13:47.563Z,9.1
2018-03-11T02:14:28.116Z,9.13
2018-03-11T02:15:08.701Z,8.99
2018-03-11T02:15:49.264Z,9
2018-03-11T02:16:29.912Z,9.14
2018-03-11T02:17:10.476Z,9.02
2018-03-11T02:17:51.049Z,9.04
2018-03-11T02:18:31.665Z,9.11
2018-03-11T02:19:12.161Z,9.13
2018-03-11T02:19:52.717Z,9.02
2018-03-11T02:20:33.301Z,9.13
2018-03-11T02:21:13.861Z,8.97
2018-03-11T02:21:54.427Z,9.04
2018-03-11T02:22:35.003Z,8.99
2018-03-11T02:23:15.562Z,8.99
2018-03-11T02:23:56.131Z,9.06
2018-03-11T02:24:36.712Z,9
2018-03-11T02:25:17.277Z,9.08
2018-03-11T02:25:57.838Z,9.16
2018-03-11T02:26:38.419Z,9.1
2018-03-11T02:27:19.027Z,9.08
2018-03-11T02:27:59.591Z,9.08
2018-03-11T02:28:40.140Z,9.08
2018-03-11T02:29:20.701Z,9
2018-03-11T02:30:01.244Z,9
2018-03-11T02:30:41.858Z,9.11
2018-03-11T02:31:22.427Z,9.04
2018-03-11T02:32:02.990Z,8.99
2018-03-11T02:32:43.547Z,9.1
2018-03-11T02:33:24.105Z,8.97
2018-03-11T02:34:04.695Z,8.97
2018-03-11T02:34:45.298Z,9
2018-03-11T02:35:25.956Z,9.03
2018-03-11T02:36:06.521Z,9.03
2018-03-11T02:36:47.114Z,8.95
2018-03-11T02:37:27.713Z,8.95
2018-03-11T02:38:08.332Z,8.97
2018-03-11T02:38:48.890Z,8.95
2018-03-11T02:39:29.460Z,8.94
2018-03-11T02:40:10.065Z,8.97
2018-03-11T02:40:50.683Z,8.94
2018-03-11T02:41:31.290Z,8.94
2018-03-11T02:42:11.879Z,8.97
2018-03-11T02:42:52.520Z,8.99
2018-03-11T02:43:33.128Z,8.88
2018-03-11T02:44:13.981Z,8.92
2018-03-11T02:44:54.568Z,8.85
2018-03-11T02:45:35.143Z,8.97
2018-03-11T02:46:15.727Z,9
2018-03-11T02:46:56.289Z,8.97
2018-03-11T02:47:36.849Z,8.97
2018-03-11T02:48:17.468Z,8.95
2018-03-11T02:48:58.033Z,9.03
2018-03-11T02:49:38.786Z,8.95
2018-03-11T02:50:19.341Z,8.94
2018-03-11T02:50:59.926Z,8.84
2018-03-11T02:51:40.487Z,8.92
2018-03-11T02:52:21.062Z,8.92
2018-03-11T02:53:01.651Z,8.89
2018-03-11T02:53:42.220Z,8.97
2018-03-11T02:54:22.791Z,8.95
2018-03-11T02:55:03.358Z,8.84
2018-03-11T02:55:43.928Z,8.94
2018-03-11T02:56:24.515Z,8.89
2018-03-11T02:57:05.069Z,8.97
2018-03-11T02:57:45.636Z,8.89
2018-03-11T02:58:26.198Z,8.87
2018-03-11T02:59:06.767Z,8.89
2018-03-11T02:59:47.345Z,8.84
2018-03-11T03:00:27.915Z,8.74
2018-03-11T03:01:08.519Z,8.76
2018-03-11T03:01:49.266Z,8.78
2018-03-11T03:02:29.812Z,8.78
2018-03-11T03:03:10.365Z,8.76
2018-03-11T03:03:50.921Z,8.73
2018-03-11T03:04:31.492Z,8.73
2018-03-11T03:05:12.058Z,8.73
2018-03-11T03:05:52.628Z,8.67
2018-03-11T03:06:33.208Z,8.63
2018-03-11T03:07:13.774Z,8.61
2018-03-11T03:07:54.464Z,8.67
2018-03-11T03:08:35.086Z,8.67
2018-03-11T03:09:15.641Z,8.64
2018-03-11T03:09:56.196Z,8.7
2018-03-11T03:10:36.763Z,8.64
2018-03-11T03:11:17.332Z,8.7
2018-03-11T03:11:57.949Z,8.56
2018-03-11T03:12:38.506Z,8.6
2018-03-11T03:13:19.068Z,8.63
2018-03-11T03:13:59.628Z,8.6
2018-03-11T03:14:40.207Z,8.58
2018-03-11T03:15:20.783Z,8.63
2018-03-11T03:16:01.392Z,8.6
2018-03-11T03:16:41.944Z,8.51
2018-03-11T03:17:22.528Z,8.6
2018-03-11T03:18:03.124Z,8.58
2018-03-11T03:18:43.684Z,8.51
2018-03-11T03:19:24.229Z,8.48
2018-03-11T03:20:04.803Z,8.52
2018-03-11T03:20:45.340Z,8.52
2018-03-11T03:21:25.907Z,8.52
2018-03-11T03:22:06.462Z,8.52
2018-03-11T03:22:47.047Z,8.53
2018-03-11T03:23:27.619Z,8.52
2018-03-11T03:24:08.181Z,8.38
2018-03-11T03:24:48.719Z,8.38
2018-03-11T03:25:29.305Z,8.48
2018-03-11T03:26:09.846Z,8.51
2018-03-11T03:26:50.401Z,8.49
2018-03-11T03:27:30.962Z,8.48
2018-03-11T03:28:11.578Z,8.48
2018-03-11T03:28:52.142Z,8.44
2018-03-11T03:29:32.711Z,8.41
2018-03-11T03:30:13.281Z,8.48
2018-03-11T03:30:53.918Z,8.41
2018-03-11T03:31:34.416Z,8.51
2018-03-11T03:32:14.965Z,8.45
2018-03-11T03:32:55.522Z,8.46
2018-03-11T03:33:36.072Z,8.42
2018-03-11T03:34:16.671Z,8.45
2018-03-11T03:34:57.225Z,8.49
2018-03-11T03:35:37.883Z,8.41
2018-03-11T03:36:18.470Z,8.42
2018-03-11T03:36:59.027Z,8.44
2018-03-11T03:37:39.640Z,8.42
2018-03-11T03:38:20.182Z,8.44
2018-03-11T03:39:00.739Z,8.45
2018-03-11T03:39:41.286Z,8.44
2018-03-11T03:40:21.860Z,8.33
2018-03-11T03:41:03.313Z,8.42
2018-03-11T03:41:43.867Z,8.36
2018-03-11T03:42:24.439Z,8.41
2018-03-11T03:43:05.067Z,8.44
2018-03-11T03:43:45.661Z,8.33
2018-03-11T03:44:26.219Z,8.37
2018-03-11T03:45:06.794Z,8.33
2018-03-11T03:45:47.400Z,8.38
2018-03-11T03:46:27.985Z,8.31
2018-03-11T03:47:08.567Z,8.3
2018-03-11T03:47:49.196Z,8.38
2018-03-11T03:48:29.784Z,8.31
2018-03-11T03:49:10.346Z,8.28
2018-03-11T03:49:50.917Z,8.36
2018-03-11T03:50:31.557Z,8.27
2018-03-11T03:51:12.150Z,8.27
2018-03-11T03:51:52.761Z,8.24
2018-03-11T03:52:33.344Z,8.3
2018-03-11T03:53:13.875Z,8.27
2018-03-11T03:53:54.444Z,8.3
2018-03-11T03:54:34.994Z,8.23
2018-03-11T03:55:15.645Z,8.28
2018-03-11T03:55:56.401Z,8.27
2018-03-11T03:56:37.019Z,8.28
2018-03-11T03:57:17.574Z,8.2
2018-03-11T03:57:58.194Z,8.2
2018-03-11T03:58:38.754Z,8.24
2018-03-11T03:59:19.370Z,8.28
2018-03-11T03:59:59.944Z,8.26
2018-03-11T04:00:40.497Z,8.24
2018-03-11T04:01:21.067Z,8.2
2018-03-11T04:02:01.628Z,8.16
2018-03-11T04:02:42.189Z,8.2
2018-03-11T04:03:22.793Z,8.27
2018-03-11T04:04:03.357Z,8.27
2018-03-11T04:04:43.910Z,8.24
2018-03-11T04:05:24.498Z,8.2
2018-03-11T04:06:05.084Z,8.2
2018-03-11T04:06:45.637Z,8.27
2018-03-11T04:07:26.186Z,8.19
2018-03-11T04:08:06.781Z,8.2
2018-03-11T04:08:47.345Z,8.24
2018-03-11T04:09:27.936Z,8.19
2018-03-11T04:10:08.494Z,8.26
2018-03-11T04:10:49.065Z,8.2
2018-03-11T04:11:29.619Z,8.26
2018-03-11T04:12:10.186Z,8.24
2018-03-11T04:12:50.790Z,8.23
2018-03-11T04:13:31.351Z,8.19
2018-03-11T04:14:11.923Z,8.24
2018-03-11T04:14:52.492Z,8.24
2018-03-11T04:15:33.074Z,8.24
2018-03-11T04:16:13.627Z,8.24
2018-03-11T04:16:54.181Z,8.19
2018-03-11T04:17:34.756Z,8.23
2018-03-11T04:18:15.313Z,8.19
2018-03-11T04:18:55.964Z,8.27
2018-03-11T04:19:36.557Z,8.2
2018-03-11T04:20:17.111Z,8.26
2018-03-11T04:20:57.682Z,8.2
2018-03-11T04:21:38.262Z,8.2
2018-03-11T04:22:18.834Z,8.24
2018-03-11T04:22:59.390Z,8.27
2018-03-11T04:23:39.946Z,8.26
2018-03-11T04:24:20.534Z,8.27
2018-03-11T04:25:01.095Z,8.26
2018-03-11T04:25:41.649Z,8.27
2018-03-11T04:26:22.245Z,8.26
2018-03-11T04:27:02.774Z,8.23
2018-03-11T04:27:43.403Z,8.24
2018-03-11T04:28:23.927Z,8.16
2018-03-11T04:29:04.500Z,8.27
2018-03-11T04:29:45.047Z,8.2
2018-03-11T04:30:25.599Z,8.2
2018-03-11T04:31:06.160Z,8.24
2018-03-11T04:31:46.756Z,8.15
2018-03-11T04:32:27.365Z,8.18
2018-03-11T04:33:07.927Z,8.18
2018-03-11T04:33:48.509Z,8.23
2018-03-11T04:34:29.208Z,8.2
2018-03-11T04:35:09.765Z,8.19
2018-03-11T04:35:50.387Z,8.2
2018-03-11T04:36:30.973Z,8.23
2018-03-11T04:37:11.546Z,8.2
2018-03-11T04:37:52.200Z,8.26
2018-03-11T04:38:32.764Z,8.24
2018-03-11T04:39:13.291Z,8.27
2018-03-11T04:39:53.899Z,8.2
2018-03-11T04:40:34.471Z,8.23
2018-03-11T04:41:15.023Z,8.18
2018-03-11T04:41:55.575Z,8.19
2018-03-11T04:42:36.139Z,8.23
2018-03-11T04:43:16.700Z,8.26
2018-03-11T04:43:57.269Z,8.2
2018-03-11T04:44:37.861Z,8.23
2018-03-11T04:45:18.410Z,8.23
2018-03-11T04:45:58.977Z,8.27
2018-03-11T04:46:39.531Z,8.24
2018-03-11T04:47:20.086Z,8.2
2018-03-11T04:48:00.650Z,8.2
2018-03-11T04:48:41.211Z,8.23
2018-03-11T04:49:21.810Z,8.2
2018-03-11T04:50:02.361Z,8.24
2018-03-11T04:50:42.943Z,8.19
2018-03-11T04:51:23.519Z,8.27
2018-03-11T04:52:04.074Z,8.24
2018-03-11T04:52:44.629Z,8.27
2018-03-11T04:53:25.201Z,8.26
2018-03-11T04:54:05.766Z,8.26
2018-03-11T04:54:46.326Z,8.19
2018-03-11T04:55:26.887Z,8.15
2018-03-11T04:56:07.470Z,8.26
2018-03-11T04:56:48.048Z,8.23
2018-03-11T04:57:28.611Z,8.18
2018-03-11T04:58:09.170Z,8.24
2018-03-11T04:58:49.735Z,8.2
2018-03-11T04:59:30.296Z,8.2
2018-03-11T05:00:10.849Z,8.16
2018-03-11T05:00:51.405Z,8.2
2018-03-11T05:01:31.968Z,8.26
2018-03-11T05:02:12.526Z,8.15
2018-03-11T05:02:53.093Z,8.23
2018-03-11T05:03:33.658Z,8.15
2018-03-11T05:04:14.210Z,8.15
2018-03-11T05:04:54.776Z,8.15
2018-03-11T05:05:35.330Z,8.19
2018-03-11T05:06:15.888Z,8.12
2018-03-11T05:06:56.587Z,8.19
2018-03-11T05:07:37.117Z,8.12
2018-03-11T05:08:17.682Z,8.13
2018-03-11T05:08:58.251Z,8.15
2018-03-11T05:09:38.815Z,8.12
2018-03-11T05:10:19.386Z,8.13
2018-03-11T05:14:05.339Z,8.19
2018-03-11T05:14:45.879Z,8.15
2018-03-11T05:15:26.439Z,8.13
2018-03-11T05:16:07.000Z,8.15
2018-03-11T05:16:47.545Z,8.15
2018-03-11T05:17:28.094Z,8.16
2018-03-11T05:18:08.687Z,8.15
2018-03-11T05:18:49.264Z,8.16
2018-03-11T05:19:29.818Z,8.08
2018-03-11T05:20:10.386Z,8.18
2018-03-11T05:20:50.999Z,8.1
2018-03-11T05:21:31.551Z,8.13
2018-03-11T05:22:12.103Z,8.08
2018-03-11T05:22:52.652Z,8.15
2018-03-11T05:23:33.206Z,8.05
2018-03-11T05:24:13.759Z,8.06
2018-03-11T05:24:54.307Z,8.06
2018-03-11T05:25:34.887Z,8.05
2018-03-11T05:26:15.447Z,8.01
2018-03-11T05:26:55.994Z,8.18
2018-03-11T05:27:36.537Z,8.09
2018-03-11T05:28:17.081Z,8.12
2018-03-11T05:28:57.638Z,8.06
2018-03-11T05:29:38.170Z,8.05
2018-03-11T05:30:18.760Z,8
2018-03-11T05:30:59.329Z,8.08
2018-03-11T05:31:39.875Z,8.01
2018-03-11T05:32:20.438Z,8.03
2018-03-11T05:33:01.002Z,8.01
2018-03-11T05:33:41.592Z,8.05
2018-03-11T05:34:22.131Z,8.01
2018-03-11T05:35:02.675Z,8
2018-03-11T05:35:43.227Z,8.03
2018-03-11T05:36:23.923Z,8.01
2018-03-11T05:37:04.475Z,8.15
2018-03-11T05:37:45.070Z,8.19
2018-03-11T05:38:25.649Z,8.09
2018-03-11T05:39:06.220Z,8.12
2018-03-11T05:39:46.761Z,8.08
2018-03-11T05:40:27.302Z,8.03
2018-03-11T05:41:07.856Z,7.95
2018-03-11T05:41:48.396Z,8.05
2018-03-11T05:42:28.960Z,8.03
2018-03-11T05:43:09.505Z,8.06
2018-03-11T05:43:50.055Z,7.9
2018-03-11T05:44:30.627Z,7.95
2018-03-11T05:45:11.158Z,7.97
2018-03-11T05:45:51.713Z,7.97
2018-03-11T05:46:32.266Z,7.95
2018-03-11T05:47:12.845Z,7.93
2018-03-11T05:47:53.373Z,7.94
2018-03-11T05:48:33.913Z,7.95
2018-03-11T05:49:14.464Z,8.03
2018-03-11T05:49:54.999Z,8
2018-03-11T05:50:35.600Z,8.05
2018-03-11T05:51:16.138Z,7.94
2018-03-11T05:51:56.725Z,7.93
2018-03-11T05:52:37.240Z,8.08
2018-03-11T05:53:17.862Z,8.03
2018-03-11T05:53:58.399Z,8.08
2018-03-11T05:54:38.922Z,7.97
2018-03-11T05:55:19.526Z,8.03
2018-03-11T05:56:00.053Z,8.01
2018-03-11T05:56:40.610Z,8.01
2018-03-11T05:57:21.169Z,8.06
2018-03-11T05:58:01.729Z,8.01
2018-03-11T05:58:42.287Z,8.01
2018-03-11T05:59:22.878Z,8.01
2018-03-11T06:00:03.399Z,8.05
2018-03-11T06:00:43.955Z,8.08
2018-03-11T06:01:24.513Z,8.05
2018-03-11T06:02:05.076Z,8.06
2018-03-11T06:02:45.621Z,8.08
2018-03-11T06:03:26.177Z,7.98
2018-03-11T06:04:06.748Z,8.01
2018-03-11T06:04:47.308Z,7.97
2018-03-11T06:05:27.862Z,8.05
2018-03-11T06:06:08.419Z,7.98
2018-03-11T06:06:48.976Z,7.98
2018-03-11T06:07:29.532Z,8
2018-03-11T06:08:10.086Z,8.05
2018-03-11T06:08:50.631Z,8.06
2018-03-11T06:09:31.197Z,8.09
2018-03-11T06:10:11.757Z,8.03
2018-03-11T06:10:52.308Z,8.05
2018-03-11T06:11:32.859Z,8.03
2018-03-11T06:12:13.447Z,8.06
2018-03-11T06:12:54.073Z,8.01
2018-03-11T06:13:34.678Z,8.05
2018-03-11T06:14:15.223Z,7.98
2018-03-11T06:14:55.776Z,8.05
2018-03-11T06:15:36.318Z,8.05
2018-03-11T06:16:16.883Z,8.03
2018-03-11T06:16:57.413Z,8.05
2018-03-11T06:17:37.952Z,8.01
2018-03-11T06:18:18.498Z,8.03
2018-03-11T06:18:59.057Z,8.08
2018-03-11T06:19:39.621Z,7.93
2018-03-11T06:20:20.171Z,8.06
2018-03-11T06:21:00.771Z,7.87
2018-03-11T06:21:41.327Z,7.95
2018-03-11T06:22:21.863Z,7.97
2018-03-11T06:23:02.429Z,7.85
2018-03-11T06:23:42.952Z,7.85
2018-03-11T06:24:23.504Z,7.85
2018-03-11T06:25:04.061Z,7.88
2018-03-11T06:25:44.623Z,7.85
2018-03-11T06:26:25.176Z,7.88
2018-03-11T06:27:05.721Z,7.85
2018-03-11T06:27:46.281Z,7.91
2018-03-11T06:28:26.823Z,7.9
2018-03-11T06:29:07.368Z,7.88
2018-03-11T06:29:47.927Z,7.97
2018-03-11T06:30:28.481Z,7.91
2018-03-11T06:31:09.038Z,7.98
2018-03-11T06:31:49.592Z,7.94
2018-03-11T06:32:30.169Z,7.98
2018-03-11T06:33:10.712Z,7.98
2018-03-11T06:33:51.251Z,7.93
2018-03-11T06:34:31.805Z,7.98
2018-03-11T06:35:12.357Z,7.95
2018-03-11T06:35:52.916Z,7.97
2018-03-11T06:36:33.468Z,7.93
2018-03-11T06:37:14.031Z,7.95
2018-03-11T06:37:54.585Z,7.97
2018-03-11T06:38:35.144Z,7.94
2018-03-11T06:39:15.670Z,7.93
2018-03-11T06:39:56.228Z,7.97
2018-03-11T06:40:36.781Z,7.94
2018-03-11T06:41:17.370Z,7.93
2018-03-11T06:41:57.942Z,7.93
2018-03-11T06:42:38.500Z,7.93
2018-03-11T06:43:19.188Z,7.91
2018-03-11T06:43:59.740Z,7.91
2018-03-11T06:44:40.289Z,7.98
2018-03-11T06:45:20.851Z,7.91
2018-03-11T06:46:01.415Z,7.93
2018-03-11T06:46:41.977Z,7.94
2018-03-11T06:47:22.543Z,7.91
2018-03-11T06:48:03.144Z,7.95
2018-03-11T06:48:43.696Z,7.94
2018-03-11T06:49:24.247Z,8.01
2018-03-11T06:50:04.799Z,7.93
2018-03-11T06:50:45.358Z,8.03
2018-03-11T06:51:25.929Z,8.06
2018-03-11T06:52:06.521Z,8.08
2018-03-11T06:52:47.071Z,8.03
2018-03-11T06:53:27.618Z,8.1
2018-03-11T06:54:08.193Z,8.1
2018-03-11T06:54:48.750Z,7.98
2018-03-11T06:55:29.303Z,8.03
2018-03-11T06:56:09.848Z,8.01
2018-03-11T06:56:50.421Z,8.05
2018-03-11T06:57:30.978Z,8.1
2018-03-11T06:58:11.597Z,8.12
2018-03-11T06:58:52.106Z,8.13
2018-03-11T06:59:32.670Z,8.12
2018-03-11T07:00:13.236Z,8.09
2018-03-11T07:00:53.786Z,8.13
2018-03-11T07:01:34.346Z,8.24
2018-03-11T07:02:14.896Z,8.23
2018-03-11T07:02:55.456Z,8.18
2018-03-11T07:03:36.012Z,8.18
2018-03-11T07:04:16.610Z,8.2
2018-03-11T07:04:57.173Z,8.24
2018-03-11T07:05:37.728Z,8.23
2018-03-11T07:06:18.285Z,8.3
2018-03-11T07:06:58.844Z,8.33
2018-03-11T07:07:39.398Z,8.31
2018-03-11T07:08:19.948Z,8.33
2018-03-11T07:09:00.506Z,8.34
2018-03-11T07:09:41.049Z,8.41
2018-03-11T07:10:21.598Z,8.36
2018-03-11T07:11:02.155Z,8.34
2018-03-11T07:11:42.712Z,8.38
2018-03-11T07:12:23.259Z,8.38
2018-03-11T07:13:03.801Z,8.34
2018-03-11T07:13:44.362Z,8.33
2018-03-11T07:14:24.912Z,8.33
2018-03-11T07:15:05.464Z,8.34
2018-03-11T07:15:46.029Z,8.38
2018-03-11T07:16:26.612Z,8.34
2018-03-11T07:17:07.164Z,8.46
2018-03-11T07:17:47.738Z,8.45
2018-03-11T07:18:28.850Z,8.38
2018-03-11T07:19:09.399Z,8.36
2018-03-11T07:19:49.947Z,8.38
2018-03-11T07:20:30.481Z,8.41
2018-03-11T07:21:11.032Z,8.37
2018-03-11T07:21:51.579Z,8.37
2018-03-11T07:22:32.133Z,8.37
2018-03-11T07:23:12.682Z,8.44
2018-03-11T07:23:53.245Z,8.46
2018-03-11T07:24:33.779Z,8.44
2018-03-11T07:25:14.336Z,8.46
2018-03-11T07:25:54.899Z,8.46
2018-03-11T07:26:35.442Z,8.44
2018-03-11T07:27:15.991Z,8.51
2018-03-11T07:27:56.546Z,8.42
2018-03-11T07:28:37.099Z,8.52
2018-03-11T07:29:17.648Z,8.49
2018-03-11T07:29:58.282Z,8.55
2018-03-11T07:30:38.844Z,8.66
2018-03-11T07:31:19.386Z,8.61
2018-03-11T07:31:59.942Z,8.73
2018-03-11T07:32:40.501Z,8.87
2018-03-11T07:33:21.069Z,8.94
2018-03-11T07:34:01.621Z,8.97
2018-03-11T07:34:42.176Z,9.11
2018-03-11T07:35:22.729Z,9.16
2018-03-11T07:36:03.330Z,9.47
2018-03-11T07:36:43.826Z,9.65
2018-03-11T07:37:24.383Z,9.84
2018-03-11T07:38:04.951Z,10.01
2018-03-11T07:38:45.517Z,10.17
2018-03-11T07:39:26.081Z,10.53
2018-03-11T07:40:06.645Z,10.71
2018-03-11T07:40:47.229Z,11.08
2018-03-11T07:41:27.824Z,11.25
2018-03-11T07:42:08.374Z,11.4
2018-03-11T07:42:48.947Z,11.5
2018-03-11T07:43:29.500Z,11.69
2018-03-11T07:44:10.043Z,11.8
2018-03-11T07:44:50.615Z,11.99
2018-03-11T07:45:31.167Z,12.17
2018-03-11T07:46:11.716Z,12.31
2018-03-11T07:46:52.280Z,12.55
2018-03-11T07:47:32.838Z,12.73
2018-03-11T07:48:13.399Z,12.91
2018-03-11T07:48:53.973Z,12.97
2018-03-11T07:49:34.548Z,13.11
2018-03-11T07:50:15.111Z,13.27
2018-03-11T07:50:55.690Z,13.33
2018-03-11T07:51:36.249Z,13.35
2018-03-11T07:52:16.823Z,13.42
2018-03-11T07:52:57.396Z,13.46
2018-03-11T07:53:37.956Z,13.6
2018-03-11T07:54:18.530Z,13.72
2018-03-11T07:54:59.093Z,13.71
2018-03-11T07:55:39.650Z,13.83
2018-03-11T07:56:20.224Z,13.85
2018-03-11T07:57:00.769Z,13.87
2018-03-11T07:57:41.321Z,13.95
2018-03-11T07:58:21.885Z,13.95
2018-03-11T07:59:02.435Z,14.12
2018-03-11T07:59:42.978Z,14.28
2018-03-11T08:00:23.530Z,14.37
2018-03-11T08:01:04.129Z,14.53
2018-03-11T08:01:44.702Z,14.63
2018-03-11T08:02:25.263Z,14.59
2018-03-11T08:03:05.817Z,14.73
2018-03-11T08:03:46.386Z,14.84
2018-03-11T08:04:26.958Z,14.79
2018-03-11T08:05:07.542Z,14.66
2018-03-11T08:05:48.132Z,14.72
2018-03-11T08:06:28.695Z,14.7
2018-03-11T08:07:09.267Z,14.65
2018-03-11T08:07:49.859Z,14.63
2018-03-11T08:08:30.423Z,14.7
2018-03-11T08:09:11.013Z,14.65
2018-03-11T08:09:51.579Z,14.77
2018-03-11T08:10:32.150Z,14.79
2018-03-11T08:11:12.772Z,14.86
2018-03-11T08:11:53.329Z,15.04
2018-03-11T08:12:33.907Z,15.28
2018-03-11T08:13:14.479Z,15.39
2018-03-11T08:13:55.049Z,15.44
2018-03-11T08:14:35.616Z,15.55
2018-03-11T08:15:16.179Z,15.64
2018-03-11T08:15:56.741Z,15.86
2018-03-11T08:16:37.308Z,15.8
2018-03-11T08:17:17.886Z,15.98
2018-03-11T08:17:58.448Z,15.95
2018-03-11T08:18:39.008Z,16
2018-03-11T08:19:19.587Z,16.21
2018-03-11T08:20:00.170Z,16.29
2018-03-11T08:20:40.740Z,16.36
2018-03-11T08:21:21.319Z,16.39
2018-03-11T08:22:01.898Z,16.61
2018-03-11T08:22:42.450Z,16.66
2018-03-11T08:23:23.078Z,16.68
2018-03-11T08:24:03.647Z,16.83
2018-03-11T08:24:44.226Z,16.83
2018-03-11T08:25:24.780Z,16.9
2018-03-11T08:26:05.348Z,16.97
2018-03-11T08:26:45.902Z,17.04
2018-03-11T08:27:26.480Z,17.16
2018-03-11T08:28:07.058Z,17.22
2018-03-11T08:28:47.642Z,17.15
2018-03-11T08:29:28.226Z,17.23
2018-03-11T08:30:08.786Z,17.19
2018-03-11T08:30:49.327Z,17.19
2018-03-11T08:31:29.954Z,17.24
2018-03-11T08:32:10.517Z,17.22
2018-03-11T08:32:51.124Z,17.24
2018-03-11T08:33:31.666Z,17.19
2018-03-11T08:34:12.250Z,17.22
2018-03-11T08:36:25.264Z,17.22
2018-03-11T08:37:05.825Z,17.23
2018-03-11T08:37:46.397Z,17.11
2018-03-11T08:38:26.943Z,17.12
2018-03-11T08:39:07.480Z,17.19
2018-03-11T08:39:48.039Z,17.04
2018-03-11T08:40:28.594Z,17.02
2018-03-11T08:41:09.258Z,16.76
2018-03-11T08:41:49.807Z,16.79
2018-03-11T08:42:30.354Z,16.69
2018-03-11T08:43:10.919Z,16.57
2018-03-11T08:43:51.482Z,16.54
2018-03-11T08:44:32.024Z,16.43
2018-03-11T08:45:12.572Z,16.41
2018-03-11T08:45:53.205Z,16.29
2018-03-11T08:46:33.760Z,16.28
2018-03-11T08:47:14.329Z,16.24
2018-03-11T08:47:54.907Z,16.17
2018-03-11T08:48:35.480Z,16.08
2018-03-11T08:49:16.052Z,16
2018-03-11T08:49:56.635Z,16
2018-03-11T08:50:37.247Z,16
2018-03-11T08:51:17.805Z,15.92
2018-03-11T08:51:58.387Z,15.95
2018-03-11T08:52:38.934Z,15.88
2018-03-11T08:53:19.472Z,15.98
2018-03-11T08:54:00.055Z,15.83
2018-03-11T08:54:40.619Z,15.92
2018-03-11T08:55:21.215Z,15.8
2018-03-11T08:56:01.763Z,15.83
2018-03-11T08:56:42.359Z,15.8
2018-03-11T08:57:22.919Z,15.82
2018-03-11T08:58:03.552Z,15.88
2018-03-11T08:58:44.107Z,15.88
2018-03-11T08:59:24.732Z,15.84
2018-03-11T09:00:05.224Z,15.76
2018-03-11T09:00:45.801Z,15.79
2018-03-11T09:01:26.390Z,15.79
2018-03-11T09:02:06.943Z,15.8
2018-03-11T09:02:47.497Z,15.84
2018-03-11T09:03:28.062Z,15.84
2018-03-11T09:04:08.640Z,15.95
2018-03-11T09:04:49.176Z,15.83
2018-03-11T09:05:29.748Z,15.86
2018-03-11T09:06:10.265Z,15.8